Time;durP1;ratioP1;P1;durP2;ratioP2;P2;SDS_P1;SDS_P2;PMS_P1;PMS_P2;Temp;Humidity;BMP_temperature;BMP_pressure;BME280_temperature;BME280_humidity;BME280_pressure;Samples;Min_cycle;Max_cycle;Signal;HPM_P1;HPM_P2
2022/12/02 00:00:26;;;;;;;37.67;14.38;;;;;;;-7.30;65.00;102045.69;4990620;28;20188;-51
2022/12/02 00:02:57;;;;;;;40.38;14.65;;;;;;;-7.32;64.90;102041.28;5009427;28;20038;-53
2022/12/02 00:05:22;;;;;;;42.72;14.20;;;;;;;-7.21;64.91;102035.38;4956249;28;20059;-52
2022/12/02 00:07:49;;;;;;;46.67;14.25;;;;;;;-7.14;64.75;102045.19;4990358;28;20053;-53
2022/12/02 00:10:23;;;;;;;37.67;14.10;;;;;;;-7.10;64.49;102034.53;4990386;28;20042;-52
2022/12/02 00:12:50;;;;;;;40.58;14.82;;;;;;;-7.04;64.26;102040.03;4979373;28;20116;-55
2022/12/02 00:15:40;;;;;;;37.30;14.40;;;;;;;-6.94;64.66;102041.59;4972377;28;20042;-49
2022/12/02 00:18:09;;;;;;;43.58;14.65;;;;;;;-6.91;63.98;102031.72;4981310;28;20049;-51
2022/12/02 00:20:35;;;;;;;45.08;15.70;;;;;;;-6.85;63.94;102044.78;4976676;28;20080;-48
2022/12/02 00:23:00;;;;;;;45.90;15.32;;;;;;;-6.79;63.84;102030.06;4984645;28;20141;-52
2022/12/02 00:25:27;;;;;;;39.20;13.93;;;;;;;-6.94;63.96;101996.06;4974629;28;20884;-54
2022/12/02 00:27:52;;;;;;;46.65;13.85;;;;;;;-6.64;63.70;102028.63;4985918;28;20077;-52
2022/12/02 00:30:18;;;;;;;45.72;15.05;;;;;;;-6.60;63.40;102022.16;4988434;28;20055;-53
2022/12/02 00:32:44;;;;;;;48.33;15.20;;;;;;;-6.54;63.28;102023.44;4960268;28;20074;-52
2022/12/02 00:35:10;;;;;;;38.70;14.35;;;;;;;-6.48;63.49;102023.00;4973183;28;20506;-50
2022/12/02 00:37:36;;;;;;;39.10;15.35;;;;;;;-6.42;63.29;102023.44;4953984;28;20077;-53
2022/12/02 00:40:03;;;;;;;39.70;15.48;;;;;;;-6.42;63.30;102026.84;4972260;28;20040;-51
2022/12/02 00:42:29;;;;;;;39.47;14.18;;;;;;;-6.37;63.04;102029.72;4971373;28;20047;-51
2022/12/02 00:47:39;;;;;;;40.03;14.90;;;;;;;-6.54;62.57;101990.56;4988171;28;20038;-49
2022/12/02 00:50:06;;;;;;;43.75;14.07;;;;;;;-6.31;62.43;102030.16;4982888;28;20072;-51
2022/12/02 00:52:32;;;;;;;38.13;15.02;;;;;;;-6.29;62.51;102026.09;4988066;28;20522;-52
2022/12/02 00:54:57;;;;;;;36.33;14.75;;;;;;;-6.26;62.25;102027.94;4988850;28;20056;-52
2022/12/02 00:57:24;;;;;;;52.53;16.40;;;;;;;-6.32;61.98;102030.91;4987464;28;20077;-50
2022/12/02 00:59:51;;;;;;;46.30;15.38;;;;;;;-6.34;62.22;102026.53;4985833;28;20050;-53
2022/12/02 01:02:17;;;;;;;38.40;14.45;;;;;;;-6.58;62.33;101997.81;4983167;28;20042;-48
2022/12/02 01:04:43;;;;;;;46.53;14.65;;;;;;;-6.78;61.72;101962.66;4980477;28;20513;-50
2022/12/02 01:07:09;;;;;;;41.80;15.10;;;;;;;-6.60;61.81;101995.22;4988147;28;20049;-48
2022/12/02 01:09:35;;;;;;;43.75;15.30;;;;;;;-6.50;62.33;102011.91;4971071;28;20054;-52
2022/12/02 01:12:01;;;;;;;39.42;14.57;;;;;;;-6.44;62.18;102015.72;4966631;28;20065;-54
2022/12/02 01:14:27;;;;;;;40.92;14.70;;;;;;;-6.41;61.82;102037.88;4971560;28;20076;-51
2022/12/02 01:16:53;;;;;;;42.72;14.25;;;;;;;-6.73;61.70;101966.38;4961571;28;20043;-51
2022/12/02 01:19:20;;;;;;;39.47;15.45;;;;;;;-6.74;61.96;101972.22;4962527;28;20061;-51
2022/12/02 01:21:46;;;;;;;40.90;15.02;;;;;;;-6.54;61.75;101990.56;4983955;28;20490;-53
2022/12/02 01:24:12;;;;;;;37.20;13.45;;;;;;;-6.35;61.58;102022.22;4981433;28;20054;-50
2022/12/02 01:26:38;;;;;;;36.22;14.90;;;;;;;-6.41;61.85;102007.50;4972588;28;20540;-49
2022/12/02 01:29:06;;;;;;;41.45;14.38;;;;;;;-6.31;61.80;102019.13;4984549;28;20043;-49
2022/12/02 01:31:32;;;;;;;39.85;15.48;;;;;;;-6.29;61.62;102027.72;4953340;28;20558;-52
2022/12/02 01:33:59;;;;;;;38.17;16.25;;;;;;;-6.32;61.88;102023.31;4959701;28;20055;-50
2022/12/02 01:36:25;;;;;;;46.15;16.50;;;;;;;-6.33;61.73;102015.66;4969337;28;20045;-51
2022/12/02 01:38:52;;;;;;;43.15;15.90;;;;;;;-6.51;61.61;101988.25;4974194;28;20042;-51
2022/12/02 01:41:18;;;;;;;42.80;15.02;;;;;;;-6.50;61.30;101997.63;5010801;28;20050;-50
2022/12/02 01:43:44;;;;;;;41.55;16.15;;;;;;;-6.38;61.62;102027.09;4958765;28;20043;-52
2022/12/02 01:46:09;;;;;;;44.45;16.55;;;;;;;-6.39;61.51;102022.81;4995417;28;20050;-51
2022/12/02 01:48:36;;;;;;;41.15;16.90;;;;;;;-6.44;61.29;102015.72;4970803;28;20046;-57
2022/12/02 01:51:04;;;;;;;44.38;17.60;;;;;;;-6.46;61.65;102018.94;5003914;28;20042;-54
2022/12/02 01:53:30;;;;;;;53.95;19.13;;;;;;;-6.50;61.25;102019.50;4954554;28;20094;-48
2022/12/02 01:55:56;;;;;;;43.90;17.90;;;;;;;-6.44;61.69;102027.53;4987253;28;20136;-51
2022/12/02 01:58:26;;;;;;;50.50;20.73;;;;;;;-6.66;60.95;101986.28;4952368;28;20526;-50
2022/12/02 02:00:54;;;;;;;47.05;19.95;;;;;;;-6.49;61.52;102019.59;4968710;28;20039;-48
2022/12/02 02:03:20;;;;;;;48.17;18.15;;;;;;;-6.47;61.57;102018.06;4980915;28;20049;-50
2022/12/02 02:05:46;;;;;;;43.90;17.45;;;;;;;-6.50;61.24;102019.50;4968700;28;20504;-52
2022/12/02 02:08:12;;;;;;;44.53;18.60;;;;;;;-6.58;61.28;102003.78;4970501;28;20047;-53
2022/12/02 02:10:41;;;;;;;51.42;18.80;;;;;;;-6.59;61.30;102012.13;4958536;28;20532;-50
2022/12/02 02:13:08;;;;;;;59.67;17.85;;;;;;;-6.59;61.66;102014.66;4951745;28;20046;-49
2022/12/02 02:15:37;;;;;;;44.65;18.92;;;;;;;-6.60;61.58;102023.03;4984439;28;20043;-49
2022/12/02 02:18:03;;;;;;;51.70;19.25;;;;;;;-6.59;61.71;102014.66;4968872;28;20089;-51
2022/12/02 02:20:29;;;;;;;47.33;18.45;;;;;;;-6.59;61.79;102013.75;4977144;28;20108;-49
2022/12/02 02:23:05;;;;;;;46.15;19.65;;;;;;;-6.56;61.85;102016.53;4981219;28;20059;-54
2022/12/02 02:25:38;;;;;;;48.57;19.53;;;;;;;-6.60;61.70;102000.28;5000589;28;20046;-54
2022/12/02 02:28:05;;;;;;;46.63;19.25;;;;;;;-6.57;61.57;102009.72;4975431;28;20466;-52
2022/12/02 02:30:32;;;;;;;47.47;19.45;;;;;;;-6.59;61.75;102009.59;4973909;28;20526;-52
2022/12/02 02:33:04;;;;;;;46.95;18.80;;;;;;;-6.54;61.67;102022.59;4956534;28;20042;-51
2022/12/02 02:35:31;;;;;;;53.45;19.55;;;;;;;-6.74;61.70;101985.72;4991084;28;20034;-52
2022/12/02 02:37:57;;;;;;;52.38;18.92;;;;;;;-6.75;61.64;101989.03;4974591;28;20550;-54
2022/12/02 02:40:24;;;;;;;50.83;19.55;;;;;;;-6.54;61.34;102023.44;4978009;28;20045;-50
2022/12/02 02:42:55;;;;;;;47.22;18.88;;;;;;;-6.54;61.63;102022.59;4963631;28;20084;-52
2022/12/02 02:45:23;;;;;;;43.80;18.45;;;;;;;-6.54;61.72;102015.00;4998101;28;20057;-51
2022/12/02 02:47:49;;;;;;;50.58;19.42;;;;;;;-6.54;61.82;102018.38;5005056;28;20137;-54
2022/12/02 02:50:16;;;;;;;47.30;19.00;;;;;;;-6.75;61.55;101986.50;4971219;28;20519;-54
2022/12/02 02:52:42;;;;;;;48.67;20.00;;;;;;;-6.55;61.71;102020.84;5000979;28;20444;-50
2022/12/02 02:55:09;;;;;;;51.70;18.55;;;;;;;-6.53;61.39;102009.16;4940440;28;20039;-51
2022/12/02 02:57:36;;;;;;;54.53;19.02;;;;;;;-6.73;61.81;101976.50;4974083;28;20045;-53
2022/12/02 03:00:03;;;;;;;55.25;18.35;;;;;;;-6.60;61.68;102007.84;4990737;28;20057;-50
2022/12/02 03:02:30;;;;;;;53.08;19.10;;;;;;;-6.87;61.66;101973.00;4975691;28;20046;-52
2022/12/02 03:04:56;;;;;;;49.08;18.45;;;;;;;-6.81;61.51;101990.25;4978226;28;20064;-54
2022/12/02 03:07:23;;;;;;;47.92;17.10;;;;;;;-6.61;61.67;102020.38;4989886;28;20403;-49
2022/12/02 03:09:49;;;;;;;41.60;17.50;;;;;;;-6.59;61.96;102022.25;4973351;28;20093;-53
2022/12/02 03:12:15;;;;;;;46.17;18.60;;;;;;;-6.57;61.54;102024.88;5005809;28;20182;-51
2022/12/02 03:14:41;;;;;;;55.00;18.80;;;;;;;-6.68;61.89;101993.75;4971607;28;20521;-47
2022/12/02 03:17:07;;;;;;;41.47;17.42;;;;;;;-6.48;61.42;102018.81;4973685;28;20038;-53
2022/12/02 03:19:33;;;;;;;41.22;17.02;;;;;;;-6.48;61.56;102012.88;4980686;28;20050;-54
2022/12/02 03:22:00;;;;;;;44.47;16.38;;;;;;;-6.67;61.43;101982.88;4977507;28;20043;-54
2022/12/02 03:24:26;;;;;;;45.38;16.92;;;;;;;-6.48;61.69;102020.47;4972932;28;20558;-53
2022/12/02 03:26:52;;;;;;;45.10;16.63;;;;;;;-6.53;61.49;102009.16;4991216;28;20042;-52
2022/12/02 03:29:18;;;;;;;49.60;17.80;;;;;;;-6.77;62.09;101972.88;4985915;28;20414;-53
2022/12/02 03:31:44;;;;;;;50.55;19.27;;;;;;;-6.46;62.00;102018.94;4990056;28;20042;-53
2022/12/02 03:34:10;;;;;;;43.35;16.90;;;;;;;-6.48;61.45;102020.47;4989523;28;20092;-53
2022/12/02 03:36:36;;;;;;;47.53;18.13;;;;;;;-6.48;61.64;102015.41;4980535;28;20054;-53
2022/12/02 03:39:03;;;;;;;44.72;17.25;;;;;;;-6.48;61.65;102010.34;4972389;28;20458;-53
2022/12/02 03:41:29;;;;;;;44.25;16.10;;;;;;;-6.53;61.53;102017.63;4982391;28;20511;-53
2022/12/02 03:43:56;;;;;;;45.42;17.65;;;;;;;-6.58;61.66;102016.41;4986370;28;20146;-51
2022/12/02 03:46:22;;;;;;;45.17;16.45;;;;;;;-6.58;61.76;102013.88;4994045;28;20035;-54
2022/12/02 03:48:48;;;;;;;46.30;18.05;;;;;;;-6.63;61.79;102012.69;4990365;28;20098;-50
2022/12/02 03:51:14;;;;;;;48.22;17.73;;;;;;;-6.73;61.58;101999.25;4989242;28;20471;-54
2022/12/02 03:53:41;;;;;;;42.30;17.27;;;;;;;-6.78;61.93;102008.19;4989561;28;20465;-53
2022/12/02 03:56:07;;;;;;;44.30;16.73;;;;;;;-6.85;61.83;102010.25;4986372;28;20518;-50
2022/12/02 03:58:36;;;;;;;48.90;15.95;;;;;;;-6.91;61.90;102008.97;4996940;28;20037;-52
2022/12/02 04:01:02;;;;;;;45.45;17.45;;;;;;;-7.13;62.14;101990.47;4973597;28;20766;-52
2022/12/02 04:03:28;;;;;;;44.15;17.05;;;;;;;-7.04;62.26;102004.66;4983156;28;20054;-54
2022/12/02 04:05:54;;;;;;;44.72;17.95;;;;;;;-7.05;62.32;102012.09;4971333;28;20461;-53
2022/12/02 04:08:20;;;;;;;45.03;17.77;;;;;;;-7.14;62.13;102024.06;4991276;28;20038;-50
2022/12/02 04:10:46;;;;;;;49.45;17.58;;;;;;;-7.23;62.47;102015.81;4972313;28;20054;-53
2022/12/02 04:13:12;;;;;;;50.38;20.02;;;;;;;-7.43;62.99;101992.47;4971805;28;20043;-53
2022/12/02 04:15:37;;;;;;;44.13;17.58;;;;;;;-7.30;63.05;102007.78;4971295;28;20557;-55
2022/12/02 04:18:03;;;;;;;49.22;17.67;;;;;;;-7.36;63.03;102002.28;4980489;28;20038;-53
2022/12/02 04:20:29;;;;;;;47.78;16.75;;;;;;;-7.29;62.74;102019.66;4988544;28;20430;-48
2022/12/02 04:22:55;;;;;;;47.33;17.33;;;;;;;-7.35;63.16;102019.19;4976963;28;20110;-54
2022/12/02 04:25:21;;;;;;;45.55;17.92;;;;;;;-7.54;63.14;102008.50;4980334;28;20490;-54
2022/12/02 04:27:46;;;;;;;48.95;17.50;;;;;;;-7.39;63.08;102028.97;4988463;28;20581;-53
2022/12/02 04:30:12;;;;;;;46.17;17.45;;;;;;;-7.42;63.14;102034.66;4989509;28;20050;-53
2022/12/02 04:32:38;;;;;;;44.47;16.60;;;;;;;-7.45;63.18;102033.56;4971762;28;20503;-51
2022/12/02 04:35:04;;;;;;;49.35;18.33;;;;;;;-7.68;63.24;101991.41;4976132;28;20109;-51
2022/12/02 04:37:30;;;;;;;55.40;19.13;;;;;;;-7.50;63.51;102030.69;4974083;28;20474;-51
2022/12/02 04:39:56;;;;;;;47.78;17.88;;;;;;;-7.48;63.05;102031.66;4988891;28;20034;-51
2022/12/02 04:42:22;;;;;;;55.03;18.63;;;;;;;-7.54;63.43;102028.72;4987057;28;20046;-49
2022/12/02 04:44:48;;;;;;;49.47;17.77;;;;;;;-7.53;63.22;102032.09;4987663;28;20057;-48
2022/12/02 04:47:14;;;;;;;48.40;18.35;;;;;;;-7.51;63.11;102030.56;4986677;28;20509;-49
2022/12/02 04:49:39;;;;;;;52.50;18.42;;;;;;;-7.55;63.41;102026.94;4989360;28;20049;-51
2022/12/02 04:52:05;;;;;;;41.92;17.05;;;;;;;-7.57;63.07;102033.50;4988153;28;20046;-52
2022/12/02 04:54:31;;;;;;;45.42;18.38;;;;;;;-7.59;63.50;102037.59;5005278;28;20073;-52
2022/12/02 04:56:57;;;;;;;49.63;16.85;;;;;;;-7.54;63.31;102043.88;4985818;28;20042;-53
2022/12/02 04:59:23;;;;;;;54.80;19.23;;;;;;;-7.55;63.34;102026.94;4970851;28;20163;-50
2022/12/02 05:01:49;;;;;;;48.60;18.55;;;;;;;-7.56;63.65;102035.28;4983204;28;20046;-49
2022/12/02 05:04:15;;;;;;;53.00;17.67;;;;;;;-7.51;63.56;102028.03;4982611;28;20081;-53
2022/12/02 05:06:41;;;;;;;50.67;17.83;;;;;;;-7.50;63.10;102025.63;4996804;28;20155;-57
2022/12/02 05:09:07;;;;;;;54.22;18.58;;;;;;;-7.48;63.33;102030.78;4988236;28;20137;-52
2022/12/02 05:11:32;;;;;;;51.17;17.98;;;;;;;-7.46;63.03;102032.69;4985868;28;20074;-51
2022/12/02 05:13:58;;;;;;;55.53;17.95;;;;;;;-7.48;62.91;102034.19;4981800;28;20129;-50
2022/12/02 05:16:24;;;;;;;44.80;16.98;;;;;;;-7.47;63.20;102035.06;4992006;28;20038;-53
2022/12/02 05:18:50;;;;;;;48.78;17.50;;;;;;;-7.71;63.16;101993.72;4983144;28;20703;-50
2022/12/02 05:21:16;;;;;;;56.20;18.25;;;;;;;-7.41;62.97;102038.06;4985620;28;20053;-53
2022/12/02 05:23:41;;;;;;;49.67;17.35;;;;;;;-7.46;63.04;102035.19;4987375;28;20540;-52
2022/12/02 05:26:07;;;;;;;49.75;18.15;;;;;;;-7.43;62.92;102045.53;4980333;28;20035;-52
2022/12/02 05:28:33;;;;;;;45.80;17.55;;;;;;;-7.45;62.89;102044.56;4984827;28;20120;-50
2022/12/02 05:30:59;;;;;;;46.38;16.77;;;;;;;-7.45;62.77;102048.72;4968140;28;20061;-50
2022/12/02 05:33:25;;;;;;;54.40;18.65;;;;;;;-7.56;62.96;102037.81;4987185;28;20156;-53
2022/12/02 05:35:50;;;;;;;43.88;16.80;;;;;;;-7.49;63.09;102039.16;4988878;28;20418;-53
2022/12/02 05:38:16;;;;;;;45.70;17.13;;;;;;;-7.49;63.26;102042.56;4992529;28;20038;-51
2022/12/02 05:40:42;;;;;;;46.70;16.95;;;;;;;-7.53;62.76;102038.03;4998450;28;20445;-51
2022/12/02 05:43:19;;;;;;;39.72;16.00;;;;;;;-7.52;63.35;102046.47;4997915;28;20042;-50
2022/12/02 05:45:46;;;;;;;44.00;17.05;;;;;;;-7.72;63.07;102028.19;4988954;28;20050;-52
2022/12/02 05:48:14;;;;;;;44.10;17.00;;;;;;;-7.54;63.20;102056.50;4985542;28;20053;-51
2022/12/02 05:50:41;;;;;;;47.78;17.60;;;;;;;-7.51;62.96;102056.72;4987975;28;20161;-50
2022/12/02 05:53:33;;;;;;;48.63;17.35;;;;;;;-7.47;62.92;102060.34;4981805;28;20057;-51
2022/12/02 05:55:59;;;;;;;43.97;16.85;;;;;;;-7.49;63.13;102055.19;4988466;28;20050;-51
2022/12/02 05:58:26;;;;;;;50.25;17.88;;;;;;;-7.65;62.83;102024.50;4958373;28;20057;-54
2022/12/02 06:00:57;;;;;;;42.72;16.65;;;;;;;-7.47;62.50;102052.75;4987314;28;20077;-55
2022/12/02 06:03:24;;;;;;;45.65;17.15;;;;;;;-7.43;62.97;102047.19;4984818;28;20042;-53
2022/12/02 06:05:52;;;;;;;53.20;16.92;;;;;;;-7.42;63.05;102046.41;4980035;28;20062;-55
2022/12/02 06:08:23;;;;;;;43.28;16.17;;;;;;;-7.70;62.68;102000.53;4990020;28;20145;-52
2022/12/02 06:11:28;;;;;;;40.25;16.27;;;;;;;-7.37;62.72;102052.69;4987194;28;20058;-58
2022/12/02 06:13:58;;;;;;;45.58;16.33;;;;;;;-7.45;62.62;102048.72;4961738;28;20054;-51
2022/12/02 06:16:25;;;;;;;46.42;16.60;;;;;;;-7.36;62.53;102051.94;4984228;28;20043;-49
2022/12/02 06:18:50;;;;;;;51.78;17.73;;;;;;;-7.34;62.85;102063.03;4987859;28;20206;-52
2022/12/02 06:21:18;;;;;;;47.03;15.18;;;;;;;-7.28;62.60;102060.97;5001230;28;20050;-52
2022/12/02 06:23:46;;;;;;;38.78;15.43;;;;;;;-7.19;62.17;102064.19;4987315;28;20145;-52
2022/12/02 06:26:13;;;;;;;42.95;16.38;;;;;;;-7.16;62.31;102054.28;4977920;28;20049;-51
2022/12/02 06:28:41;;;;;;;42.90;16.38;;;;;;;-7.24;62.70;102031.75;4984466;28;20042;-52
2022/12/02 06:31:24;;;;;;;46.75;16.70;;;;;;;-7.00;62.29;102061.34;4985870;28;20514;-52
2022/12/02 06:33:51;;;;;;;49.42;15.77;;;;;;;-6.90;62.30;102062.13;4984383;28;20038;-51
2022/12/02 06:36:30;;;;;;;42.22;15.82;;;;;;;-7.02;61.74;102037.63;4986422;28;20039;-54
2022/12/02 06:38:58;;;;;;;45.83;15.83;;;;;;;-6.82;61.62;102066.88;4988643;28;20069;-54
2022/12/02 06:41:28;;;;;;;44.10;16.75;;;;;;;-6.77;61.16;102058.00;4987894;28;20042;-53
2022/12/02 06:46:47;;;;;;;46.60;16.77;;;;;;;-6.63;61.17;102068.34;4985546;28;20050;-56
2022/12/02 06:49:22;;;;;;;38.35;16.05;;;;;;;-6.56;61.19;102064.59;4977186;28;20077;-51
2022/12/02 06:51:56;;;;;;;41.67;15.73;;;;;;;-6.51;61.08;102065.81;5005787;28;20038;-54
2022/12/02 06:54:26;;;;;;;38.70;15.75;;;;;;;-6.48;60.82;102068.53;4973782;28;20153;-55
2022/12/02 06:56:53;;;;;;;51.58;16.65;;;;;;;-6.46;60.77;102074.63;4999596;28;20042;-49
2022/12/02 06:59:21;;;;;;;47.53;16.55;;;;;;;-6.45;60.93;102072.19;4988713;28;20116;-50
2022/12/02 07:01:48;;;;;;;38.63;16.60;;;;;;;-6.56;60.84;102047.78;4989356;28;20054;-49
2022/12/02 07:04:44;;;;;;;45.03;16.70;;;;;;;-6.39;60.66;102070.88;4973087;28;20051;-50
2022/12/02 07:07:16;;;;;;;45.40;16.75;;;;;;;-6.39;60.72;102071.75;4971327;28;20045;-47
2022/12/02 07:09:53;;;;;;;50.72;16.67;;;;;;;-6.43;60.98;102069.75;4991420;28;20066;-48
2022/12/02 07:12:22;;;;;;;43.78;15.38;;;;;;;-6.40;61.20;102082.66;5007184;28;20054;-47
2022/12/02 07:14:54;;;;;;;41.78;15.00;;;;;;;-6.43;60.79;102075.69;4991136;28;20136;-54
2022/12/02 07:17:39;;;;;;;48.13;17.35;;;;;;;-6.44;60.75;102078.16;4989666;28;20042;-49
2022/12/02 07:20:05;;;;;;;51.38;17.85;;;;;;;-6.42;60.69;102091.78;4988499;28;20058;-52
2022/12/02 07:22:48;;;;;;;44.92;17.42;;;;;;;-6.40;60.53;102086.81;4988289;28;20050;-52
2022/12/02 07:25:14;;;;;;;39.88;15.07;;;;;;;-6.43;60.29;102085.81;4989064;28;20694;-53
2022/12/02 07:27:42;;;;;;;39.60;15.70;;;;;;;-6.42;60.52;102097.72;4984315;28;20054;-51
2022/12/02 07:30:28;;;;;;;43.58;17.23;;;;;;;-6.36;60.57;102094.75;4972568;28;20109;-50
2022/12/02 07:32:54;;;;;;;47.15;17.23;;;;;;;-6.35;60.78;102105.75;4987998;28;20034;-55
2022/12/02 07:35:20;;;;;;;61.47;20.40;;;;;;;-6.67;60.93;102040.19;4981757;28;20042;-52
2022/12/02 07:37:46;;;;;;;46.78;17.20;;;;;;;-6.25;59.98;102095.50;4990220;28;20140;-50
2022/12/02 07:40:13;;;;;;;43.95;17.77;;;;;;;-6.21;59.91;102098.38;5004350;28;20034;-50
2022/12/02 07:42:39;;;;;;;42.60;16.85;;;;;;;-6.14;59.89;102102.22;4989699;28;20054;-47
2022/12/02 07:45:06;;;;;;;49.63;16.70;;;;;;;-5.97;60.21;102111.91;4983878;28;20038;-47
2022/12/02 07:47:33;;;;;;;46.58;15.98;;;;;;;-6.06;59.50;102076.66;4989101;28;20077;-53
2022/12/02 07:49:59;;;;;;;44.28;17.90;;;;;;;-5.68;58.99;102108.81;4988230;28;20782;-54
2022/12/02 07:52:24;;;;;;;41.75;15.18;;;;;;;-5.62;58.83;102104.19;4988813;28;20122;-49
2022/12/02 07:54:53;;;;;;;47.08;17.42;;;;;;;-5.53;58.98;102101.38;4980473;28;20046;-49
2022/12/02 07:57:20;;;;;;;51.05;17.45;;;;;;;-5.43;58.57;102069.16;4984641;28;20045;-50
2022/12/02 07:59:45;;;;;;;49.60;18.38;;;;;;;-5.01;57.67;102098.19;4987823;28;20042;-51
2022/12/02 08:02:11;;;;;;;36.80;15.45;;;;;;;-4.61;57.24;102109.31;4986024;28;20146;-52
2022/12/02 08:04:37;;;;;;;42.55;17.10;;;;;;;-4.34;56.02;102101.81;4955339;28;20050;-51
2022/12/02 08:07:03;;;;;;;44.78;16.88;;;;;;;-4.18;55.52;102108.75;4971503;28;20042;-54
2022/12/02 08:09:29;;;;;;;47.38;18.85;;;;;;;-4.46;55.44;102045.19;4971737;28;20511;-50
2022/12/02 08:11:55;;;;;;;44.88;18.60;;;;;;;-3.91;54.84;102115.56;4970437;28;20046;-53
2022/12/02 08:14:21;;;;;;;49.95;18.67;;;;;;;-3.90;54.82;102109.69;4978774;28;20035;-53
2022/12/02 08:16:47;;;;;;;39.10;17.65;;;;;;;-3.68;54.15;102104.28;5004737;28;20057;-52
2022/12/02 08:19:13;;;;;;;50.83;18.10;;;;;;;-3.42;53.65;102104.22;4987949;28;20426;-53
2022/12/02 08:21:39;;;;;;;44.53;17.83;;;;;;;-3.13;53.06;102097.44;4989517;28;20514;-51
2022/12/02 08:24:06;;;;;;;59.83;20.35;;;;;;;-3.06;52.88;102104.66;4972206;28;20103;-50
2022/12/02 08:26:32;;;;;;;44.92;18.02;;;;;;;-3.16;52.42;102105.78;4989218;28;20050;-51
2022/12/02 08:28:58;;;;;;;55.83;19.00;;;;;;;-3.17;52.64;102111.63;4972041;28;20169;-52
2022/12/02 08:31:24;;;;;;;45.55;19.05;;;;;;;-3.08;52.00;102111.28;4990258;28;20132;-52
2022/12/02 08:33:50;;;;;;;48.90;19.75;;;;;;;-2.89;51.85;102105.63;4973116;28;20052;-51
2022/12/02 08:36:16;;;;;;;48.80;19.42;;;;;;;-2.71;51.44;102106.69;4985873;28;20058;-55
2022/12/02 08:38:43;;;;;;;45.60;18.02;;;;;;;-2.50;51.33;102102.81;4986449;28;20046;-51
2022/12/02 08:41:09;;;;;;;45.78;18.75;;;;;;;-2.57;51.04;102068.53;4971411;28;20095;-52
2022/12/02 08:43:35;;;;;;;46.42;18.50;;;;;;;-2.17;50.27;102106.41;4969628;28;20074;-50
2022/12/02 08:46:01;;;;;;;50.38;19.65;;;;;;;-1.71;49.75;102100.47;4981278;28;20459;-53
2022/12/02 08:48:26;;;;;;;45.47;19.33;;;;;;;-1.32;48.68;102068.53;4989902;28;20050;-54
2022/12/02 08:50:53;;;;;;;48.97;19.15;;;;;;;-0.88;48.10;102101.41;4989326;28;20065;-51
2022/12/02 08:53:20;;;;;;;52.60;20.45;;;;;;;-0.34;47.22;102101.50;4986807;28;20132;-52
2022/12/02 08:55:46;;;;;;;47.30;19.15;;;;;;;-0.15;46.24;102104.13;4969941;28;20046;-52
2022/12/02 08:58:12;;;;;;;53.65;22.13;;;;;;;-0.20;46.29;102106.47;4971029;28;20161;-50
2022/12/02 09:00:39;;;;;;;49.63;20.63;;;;;;;-0.24;46.46;102107.13;4997113;28;20124;-50
2022/12/02 09:03:09;;;;;;;52.28;19.15;;;;;;;-0.40;46.18;102102.09;4983794;28;20081;-50
2022/12/02 09:05:36;;;;;;;48.50;20.50;;;;;;;-0.60;46.49;102098.56;5005148;28;20050;-50
2022/12/02 09:08:02;;;;;;;52.15;19.90;;;;;;;-0.84;46.68;102099.91;4971923;28;20042;-51
2022/12/02 09:10:28;;;;;;;49.60;20.25;;;;;;;-0.71;46.37;102103.94;4969391;28;20530;-52
2022/12/02 09:12:54;;;;;;;45.03;21.05;;;;;;;-0.22;45.76;102103.00;4970495;28;20061;-49
2022/12/02 09:15:20;;;;;;;49.78;20.27;;;;;;;0.15;45.48;102099.59;4982656;28;20557;-50
2022/12/02 09:17:46;;;;;;;49.10;20.08;;;;;;;-0.16;45.30;102098.13;4978114;28;20038;-52
2022/12/02 09:20:12;;;;;;;56.60;20.48;;;;;;;-0.31;45.47;102101.63;4970535;28;20577;-49
2022/12/02 09:22:39;;;;;;;52.50;21.58;;;;;;;-0.44;45.64;102093.41;4969000;28;20051;-53
2022/12/02 09:25:05;;;;;;;50.08;18.90;;;;;;;-0.44;45.09;102062.75;4985049;28;20079;-54
2022/12/02 09:27:31;;;;;;;46.63;19.55;;;;;;;-0.44;45.00;102033.75;4985189;28;20050;-52
2022/12/02 09:29:57;;;;;;;47.33;20.05;;;;;;;-0.04;44.75;102036.47;4982963;28;20051;-55
2022/12/02 09:32:23;;;;;;;48.13;19.08;;;;;;;0.33;43.80;102087.63;4971993;28;20045;-48
2022/12/02 09:34:49;;;;;;;42.65;18.77;;;;;;;0.06;44.26;102083.81;4989545;28;20062;-53
2022/12/02 09:37:15;;;;;;;49.90;19.65;;;;;;;-0.14;43.97;102081.19;4984207;28;20098;-50
2022/12/02 09:39:41;;;;;;;40.47;18.58;;;;;;;-0.20;44.74;102080.03;4970226;28;20051;-54
2022/12/02 09:42:07;;;;;;;45.95;18.38;;;;;;;-0.74;44.87;102047.59;4971216;28;20142;-54
2022/12/02 09:44:33;;;;;;;41.83;19.25;;;;;;;-1.19;45.47;102077.69;4956105;28;20062;-56
2022/12/02 09:46:59;;;;;;;43.50;18.77;;;;;;;-1.82;46.26;102060.75;4988862;28;20038;-49
2022/12/02 09:49:25;;;;;;;45.55;18.08;;;;;;;-2.23;47.09;102078.91;4989344;28;20164;-54
2022/12/02 09:51:52;;;;;;;49.38;19.02;;;;;;;-2.76;48.15;102042.78;4989431;28;20442;-54
2022/12/02 09:54:18;;;;;;;44.47;17.17;;;;;;;-3.02;48.19;102035.31;4989192;28;20065;-51
2022/12/02 09:56:44;;;;;;;43.42;17.73;;;;;;;-2.95;48.93;102070.53;4974871;28;20047;-52
2022/12/02 09:59:15;;;;;;;49.85;18.52;;;;;;;-3.11;49.24;102078.94;4988220;28;20041;-51
2022/12/02 10:01:46;;;;;;;46.63;17.58;;;;;;;-3.22;49.96;102085.06;4987530;28;20422;-50
2022/12/02 10:04:14;;;;;;;50.28;18.08;;;;;;;-3.26;49.84;102085.66;4985037;28;20038;-51
2022/12/02 10:06:40;;;;;;;46.00;17.73;;;;;;;-3.36;50.45;102080.81;4984811;28;20136;-51
2022/12/02 10:09:14;;;;;;;42.67;16.15;;;;;;;-3.47;50.45;102081.84;5000049;28;20042;-53
2022/12/02 10:11:40;;;;;;;44.50;17.85;;;;;;;-3.64;50.83;102051.97;4988107;28;20462;-54
2022/12/02 10:14:10;;;;;;;35.90;16.20;;;;;;;-3.73;51.33;102043.78;4971176;28;20076;-50
2022/12/02 10:16:36;;;;;;;38.22;16.02;;;;;;;-3.75;51.28;102048.78;4988538;28;20432;-50
2022/12/02 10:19:03;;;;;;;42.95;17.83;;;;;;;-3.66;51.41;102062.03;4989233;28;20045;-51
2022/12/02 10:21:30;;;;;;;48.75;19.27;;;;;;;-3.60;51.35;102077.66;4987883;28;20050;-49
2022/12/02 10:23:59;;;;;;;42.28;17.05;;;;;;;-3.58;51.75;102070.13;4989133;28;20042;-49
2022/12/02 10:26:25;;;;;;;41.65;15.82;;;;;;;-3.58;51.52;102081.19;4980881;28;20053;-51
2022/12/02 10:29:00;;;;;;;40.08;16.23;;;;;;;-3.55;51.95;102077.94;5003409;28;20065;-51
2022/12/02 10:31:26;;;;;;;50.15;17.50;;;;;;;-3.53;51.98;102086.53;5003167;28;20580;-51
2022/12/02 10:34:01;;;;;;;35.88;15.88;;;;;;;-3.47;51.85;102075.09;4988958;28;20038;-50
2022/12/02 10:36:39;;;;;;;39.72;15.95;;;;;;;-3.08;51.53;102071.47;4989109;28;20529;-49
2022/12/02 10:39:20;;;;;;;39.92;15.80;;;;;;;-1.94;50.18;102070.31;4971412;28;20034;-51
2022/12/02 10:41:47;;;;;;;38.83;15.70;;;;;;;-1.22;49.03;102077.53;4991940;28;20034;-54
2022/12/02 10:44:18;;;;;;;35.95;15.77;;;;;;;-1.06;48.64;102049.44;4992832;28;20054;-49
2022/12/02 10:46:45;;;;;;;38.35;15.90;;;;;;;-0.77;47.94;102068.75;4971803;28;20051;-53
2022/12/02 10:49:33;;;;;;;38.97;17.02;;;;;;;-0.51;47.46;102080.25;4971872;28;20050;-50
2022/12/02 10:52:09;;;;;;;41.55;17.27;;;;;;;-0.54;47.29;102081.00;4973128;28;20049;-52
2022/12/02 10:54:38;;;;;;;43.63;16.58;;;;;;;-0.43;47.21;102074.72;4985207;28;20112;-52
2022/12/02 10:57:05;;;;;;;38.80;17.17;;;;;;;-0.15;46.73;102071.78;4990566;28;20042;-53
2022/12/02 10:59:32;;;;;;;42.40;18.17;;;;;;;0.23;46.21;102078.66;4990888;28;20048;-51
2022/12/02 11:01:59;;;;;;;41.67;18.33;;;;;;;0.52;46.10;102068.88;4989177;28;20093;-52
2022/12/02 11:04:25;;;;;;;41.22;16.23;;;;;;;0.41;45.89;102069.28;4955599;28;20742;-49
2022/12/02 11:06:53;;;;;;;33.03;15.93;;;;;;;0.08;45.95;102064.31;4972950;28;20509;-51
2022/12/02 11:09:25;;;;;;;37.10;15.55;;;;;;;-0.13;46.43;102076.97;4968183;28;20085;-55
2022/12/02 11:11:51;;;;;;;44.90;15.80;;;;;;;-0.47;46.89;102079.59;4985064;28;20070;-56
2022/12/02 11:14:38;;;;;;;44.75;17.17;;;;;;;-0.75;47.21;102072.28;4989840;28;20066;-55
2022/12/02 11:17:06;;;;;;;36.30;16.80;;;;;;;-1.01;47.63;102077.75;4972616;28;20042;-55